Portada
METAR-TAF:

METAR-TAF

Aeroports :

Sanikiluaq, Nunavut, Canadà

latitud: 56-32N, longitud: 079-15W, altitud: 32 m

Observació

L'informe es va fer fa 4 hores i 42 minuts, a les 22:00 UTC
Vent 8 kt del Est
Temperatura 3°C
Humitat 81%
Pressió 1022 hPa
Visibilitat: 24.1 km
Cel ennuvolat a una alçada de 1500 ft

METAR: CYSK 262200Z 10008KT 15SM BKN015 03/M00 A3018 RMK SC5 SN CVR/NIL LAST OBS/NEXT 271200UTC SLP225

Hora: 22:42 (02:42 UTC)


TAF: manca

Observacions i pronòstics meteorològics de més de 4000 aeroports (METAR i TAF).

Les estacions disponibles són els punts grocs i vermells al mapa.

Posi el ratolí al punt desitjat per veure el nom de l'estació.

Feu clic per veure les observacions i els pronòstics meteorològics.

Per canviar el mapa: feu clic els botons verds amb una creu de color negre per apropar; al botó verd amb un guió per allunyar la imatge; o en les fletxes verdes per a mapes adjacents.


METAR-TAF: